sensor_id;sensor_type;location;lat;lon;timestamp;pressure;altitude;pressure_sealevel;temperature;humidity
81319;BME280;70784;48.420;14.830;2023-08-01T00:00:08;97318.19;;;16.55;79.15
81319;BME280;70784;48.420;14.830;2023-08-01T00:02:54;97312.94;;;16.55;79.01
81319;BME280;70784;48.420;14.830;2023-08-01T00:05:39;97309.81;;;16.40;81.12
81319;BME280;70784;48.420;14.830;2023-08-01T00:08:28;97291.81;;;16.43;80.06
81319;BME280;70784;48.420;14.830;2023-08-01T00:11:13;97297.25;;;16.42;80.09
81319;BME280;70784;48.420;14.830;2023-08-01T00:13:58;97293.75;;;16.54;80.91
81319;BME280;70784;48.420;14.830;2023-08-01T00:16:43;97296.66;;;16.78;77.26
81319;BME280;70784;48.420;14.830;2023-08-01T00:19:27;97295.50;;;16.67;78.98
81319;BME280;70784;48.420;14.830;2023-08-01T00:22:12;97300.31;;;16.39;80.85
81319;BME280;70784;48.420;14.830;2023-08-01T00:24:56;97291.28;;;16.28;81.37
81319;BME280;70784;48.420;14.830;2023-08-01T00:27:41;97288.28;;;16.24;82.77
81319;BME280;70784;48.420;14.830;2023-08-01T00:30:25;97286.47;;;16.25;82.42
81319;BME280;70784;48.420;14.830;2023-08-01T00:33:10;97280.75;;;16.35;81.75
81319;BME280;70784;48.420;14.830;2023-08-01T00:35:54;97288.00;;;16.39;82.42
81319;BME280;70784;48.420;14.830;2023-08-01T00:38:39;97282.84;;;16.64;80.87
81319;BME280;70784;48.420;14.830;2023-08-01T00:41:23;97281.44;;;16.61;80.41
81319;BME280;70784;48.420;14.830;2023-08-01T00:44:07;97271.28;;;16.72;79.67
81319;BME280;70784;48.420;14.830;2023-08-01T00:46:52;97263.34;;;16.78;80.12
81319;BME280;70784;48.420;14.830;2023-08-01T00:49:36;97254.06;;;16.76;79.62
81319;BME280;70784;48.420;14.830;2023-08-01T00:52:21;97252.84;;;16.78;79.37
81319;BME280;70784;48.420;14.830;2023-08-01T00:55:06;97242.25;;;16.60;80.44
81319;BME280;70784;48.420;14.830;2023-08-01T00:57:52;97243.63;;;16.38;82.52
81319;BME280;70784;48.420;14.830;2023-08-01T01:00:37;97248.41;;;16.47;81.41
81319;BME280;70784;48.420;14.830;2023-08-01T01:03:23;97241.44;;;16.59;80.99
81319;BME280;70784;48.420;14.830;2023-08-01T01:09:17;97232.25;;;16.75;80.20
81319;BME280;70784;48.420;14.830;2023-08-01T01:12:02;97214.69;;;16.76;78.92
81319;BME280;70784;48.420;14.830;2023-08-01T01:14:48;97210.47;;;16.75;80.72
81319;BME280;70784;48.420;14.830;2023-08-01T01:17:32;97212.72;;;16.71;80.58
81319;BME280;70784;48.420;14.830;2023-08-01T01:20:23;97206.28;;;16.67;83.34
81319;BME280;70784;48.420;14.830;2023-08-01T01:23:09;97225.69;;;16.59;82.05
81319;BME280;70784;48.420;14.830;2023-08-01T01:25:56;97214.81;;;16.62;82.36
81319;BME280;70784;48.420;14.830;2023-08-01T01:28:41;97217.44;;;16.87;81.70
81319;BME280;70784;48.420;14.830;2023-08-01T01:31:27;97218.16;;;16.94;81.09
81319;BME280;70784;48.420;14.830;2023-08-01T01:34:11;97212.72;;;16.96;82.20
81319;BME280;70784;48.420;14.830;2023-08-01T01:36:56;97204.03;;;16.95;80.01
81319;BME280;70784;48.420;14.830;2023-08-01T01:39:41;97209.63;;;16.99;81.25
81319;BME280;70784;48.420;14.830;2023-08-01T01:42:26;97198.91;;;17.00;79.94
81319;BME280;70784;48.420;14.830;2023-08-01T01:45:10;97199.66;;;16.89;81.67
81319;BME280;70784;48.420;14.830;2023-08-01T01:47:55;97194.75;;;16.93;81.26
81319;BME280;70784;48.420;14.830;2023-08-01T01:50:39;97191.78;;;16.89;82.52
81319;BME280;70784;48.420;14.830;2023-08-01T01:53:24;97182.72;;;16.85;81.92
81319;BME280;70784;48.420;14.830;2023-08-01T01:56:08;97169.22;;;16.82;82.93
81319;BME280;70784;48.420;14.830;2023-08-01T01:58:53;97170.25;;;16.81;85.17
81319;BME280;70784;48.420;14.830;2023-08-01T02:01:42;97166.47;;;16.95;82.07
81319;BME280;70784;48.420;14.830;2023-08-01T02:04:30;97161.88;;;16.90;82.66
81319;BME280;70784;48.420;14.830;2023-08-01T02:07:21;97167.16;;;16.84;85.79
81319;BME280;70784;48.420;14.830;2023-08-01T02:10:06;97163.72;;;16.83;86.90
81319;BME280;70784;48.420;14.830;2023-08-01T02:12:59;97166.16;;;16.85;81.98
81319;BME280;70784;48.420;14.830;2023-08-01T02:15:45;97171.09;;;16.75;84.69
81319;BME280;70784;48.420;14.830;2023-08-01T02:18:33;97161.97;;;16.77;83.09
81319;BME280;70784;48.420;14.830;2023-08-01T02:21:20;97166.88;;;16.74;85.13
81319;BME280;70784;48.420;14.830;2023-08-01T02:24:05;97157.97;;;16.75;85.17
81319;BME280;70784;48.420;14.830;2023-08-01T02:26:53;97156.13;;;16.75;85.76
81319;BME280;70784;48.420;14.830;2023-08-01T02:29:43;97161.31;;;16.63;85.44
81319;BME280;70784;48.420;14.830;2023-08-01T02:32:29;97149.41;;;16.61;84.44
81319;BME280;70784;48.420;14.830;2023-08-01T02:35:14;97141.66;;;16.73;84.43
81319;BME280;70784;48.420;14.830;2023-08-01T02:37:59;97139.88;;;16.66;87.26
81319;BME280;70784;48.420;14.830;2023-08-01T02:40:46;97133.59;;;16.67;87.01
81319;BME280;70784;48.420;14.830;2023-08-01T02:43:36;97132.00;;;16.66;86.51
81319;BME280;70784;48.420;14.830;2023-08-01T02:46:21;97127.00;;;16.65;86.66
81319;BME280;70784;48.420;14.830;2023-08-01T02:49:06;97119.13;;;16.58;88.13
81319;BME280;70784;48.420;14.830;2023-08-01T02:51:54;97114.53;;;16.54;88.88
81319;BME280;70784;48.420;14.830;2023-08-01T02:54:39;97122.81;;;16.51;90.09
81319;BME280;70784;48.420;14.830;2023-08-01T02:57:24;97123.31;;;16.41;89.27
81319;BME280;70784;48.420;14.830;2023-08-01T03:00:12;97120.41;;;16.31;91.32
81319;BME280;70784;48.420;14.830;2023-08-01T03:02:58;97110.72;;;16.31;91.99
81319;BME280;70784;48.420;14.830;2023-08-01T03:05:47;97115.28;;;16.36;91.97
81319;BME280;70784;48.420;14.830;2023-08-01T03:08:35;97102.13;;;16.43;92.42
81319;BME280;70784;48.420;14.830;2023-08-01T03:11:24;97090.84;;;16.60;87.68
81319;BME280;70784;48.420;14.830;2023-08-01T03:14:13;97089.09;;;16.54;87.47
81319;BME280;70784;48.420;14.830;2023-08-01T03:16:58;97094.31;;;16.36;89.38
81319;BME280;70784;48.420;14.830;2023-08-01T03:19:46;97084.56;;;16.43;87.49
81319;BME280;70784;48.420;14.830;2023-08-01T03:22:31;97080.25;;;16.49;87.10
81319;BME280;70784;48.420;14.830;2023-08-01T03:25:20;97072.84;;;16.46;87.48
81319;BME280;70784;48.420;14.830;2023-08-01T03:28:06;97077.69;;;16.42;86.74
81319;BME280;70784;48.420;14.830;2023-08-01T03:30:51;97084.56;;;16.43;86.64
81319;BME280;70784;48.420;14.830;2023-08-01T03:33:40;97097.88;;;16.42;87.50
81319;BME280;70784;48.420;14.830;2023-08-01T03:36:25;97100.91;;;16.20;90.25
81319;BME280;70784;48.420;14.830;2023-08-01T03:39:10;97099.56;;;16.11;91.80
81319;BME280;70784;48.420;14.830;2023-08-01T03:41:58;97082.00;;;16.12;90.18
81319;BME280;70784;48.420;14.830;2023-08-01T03:44:44;97088.41;;;16.16;91.80
81319;BME280;70784;48.420;14.830;2023-08-01T03:47:31;97091.09;;;16.34;88.27
81319;BME280;70784;48.420;14.830;2023-08-01T03:50:19;97084.25;;;16.33;89.32
81319;BME280;70784;48.420;14.830;2023-08-01T03:53:04;97075.06;;;16.42;88.03
81319;BME280;70784;48.420;14.830;2023-08-01T03:55:49;97086.84;;;16.58;86.80
81319;BME280;70784;48.420;14.830;2023-08-01T03:58:34;97084.34;;;16.69;85.69
81319;BME280;70784;48.420;14.830;2023-08-01T04:01:19;97078.16;;;16.57;87.90
81319;BME280;70784;48.420;14.830;2023-08-01T04:04:05;97078.00;;;16.52;86.20
81319;BME280;70784;48.420;14.830;2023-08-01T04:06:51;97078.81;;;16.53;87.28
81319;BME280;70784;48.420;14.830;2023-08-01T04:09:36;97083.19;;;16.59;88.40
81319;BME280;70784;48.420;14.830;2023-08-01T04:12:23;97093.53;;;16.54;89.31
81319;BME280;70784;48.420;14.830;2023-08-01T04:15:08;97094.63;;;16.46;88.71
81319;BME280;70784;48.420;14.830;2023-08-01T04:17:54;97077.84;;;16.29;91.13
81319;BME280;70784;48.420;14.830;2023-08-01T04:20:39;97072.28;;;16.19;90.78
81319;BME280;70784;48.420;14.830;2023-08-01T04:23:25;97077.03;;;16.28;89.52
81319;BME280;70784;48.420;14.830;2023-08-01T04:26:10;97079.00;;;16.33;87.97
81319;BME280;70784;48.420;14.830;2023-08-01T04:28:57;97095.91;;;16.37;89.59
81319;BME280;70784;48.420;14.830;2023-08-01T04:31:42;97095.25;;;16.42;88.57
81319;BME280;70784;48.420;14.830;2023-08-01T04:34:28;97100.50;;;16.42;88.93
81319;BME280;70784;48.420;14.830;2023-08-01T04:37:15;97101.69;;;16.46;87.60
81319;BME280;70784;48.420;14.830;2023-08-01T04:40:00;97101.63;;;16.52;89.45
81319;BME280;70784;48.420;14.830;2023-08-01T04:42:46;97099.88;;;16.46;89.92
81319;BME280;70784;48.420;14.830;2023-08-01T04:45:31;97083.50;;;16.26;90.94
81319;BME280;70784;48.420;14.830;2023-08-01T04:48:21;97079.94;;;16.20;90.62
81319;BME280;70784;48.420;14.830;2023-08-01T04:51:11;97076.72;;;16.18;90.38
81319;BME280;70784;48.420;14.830;2023-08-01T04:53:57;97076.91;;;16.17;91.48
81319;BME280;70784;48.420;14.830;2023-08-01T04:56:41;97079.94;;;16.20;92.25
81319;BME280;70784;48.420;14.830;2023-08-01T04:59:27;97073.88;;;16.20;91.52
81319;BME280;70784;48.420;14.830;2023-08-01T05:02:14;97078.53;;;16.18;92.31
81319;BME280;70784;48.420;14.830;2023-08-01T05:04:59;97087.59;;;16.22;90.74
81319;BME280;70784;48.420;14.830;2023-08-01T05:07:44;97078.84;;;16.28;90.70
81319;BME280;70784;48.420;14.830;2023-08-01T05:10:33;97074.72;;;16.39;90.70
81319;BME280;70784;48.420;14.830;2023-08-01T05:13:18;97083.16;;;16.22;91.84
81319;BME280;70784;48.420;14.830;2023-08-01T05:16:07;97086.28;;;16.31;91.99
81319;BME280;70784;48.420;14.830;2023-08-01T05:18:59;97097.53;;;16.38;91.84
81319;BME280;70784;48.420;14.830;2023-08-01T05:21:49;97099.06;;;16.46;88.93
81319;BME280;70784;48.420;14.830;2023-08-01T05:24:42;97110.69;;;16.56;88.90
81319;BME280;70784;48.420;14.830;2023-08-01T05:27:30;97107.81;;;16.58;87.93
81319;BME280;70784;48.420;14.830;2023-08-01T05:30:15;97111.03;;;16.60;89.69
81319;BME280;70784;48.420;14.830;2023-08-01T05:33:01;97102.28;;;16.48;90.56
81319;BME280;70784;48.420;14.830;2023-08-01T05:35:46;97105.44;;;16.56;91.53
81319;BME280;70784;48.420;14.830;2023-08-01T05:38:31;97101.16;;;16.37;91.44
81319;BME280;70784;48.420;14.830;2023-08-01T05:41:17;97103.19;;;16.35;91.02
81319;BME280;70784;48.420;14.830;2023-08-01T05:44:03;97098.69;;;16.42;90.22
81319;BME280;70784;48.420;14.830;2023-08-01T05:46:49;97099.50;;;16.43;88.48
81319;BME280;70784;48.420;14.830;2023-08-01T05:49:36;97107.09;;;16.51;88.99
81319;BME280;70784;48.420;14.830;2023-08-01T05:52:22;97108.34;;;16.48;89.44
81319;BME280;70784;48.420;14.830;2023-08-01T05:55:12;97110.97;;;16.48;90.25
81319;BME280;70784;48.420;14.830;2023-08-01T05:58:00;97118.84;;;16.48;91.51
81319;BME280;70784;48.420;14.830;2023-08-01T06:00:45;97124.38;;;16.58;91.50
81319;BME280;70784;48.420;14.830;2023-08-01T06:03:33;97108.38;;;16.66;89.49
81319;BME280;70784;48.420;14.830;2023-08-01T06:06:20;97116.56;;;16.95;89.05
81319;BME280;70784;48.420;14.830;2023-08-01T06:09:07;97120.56;;;17.16;91.55
81319;BME280;70784;48.420;14.830;2023-08-01T06:11:53;97123.28;;;17.27;91.81
81319;BME280;70784;48.420;14.830;2023-08-01T06:14:38;97138.44;;;17.25;92.36
81319;BME280;70784;48.420;14.830;2023-08-01T06:17:24;97137.88;;;17.05;92.85
81319;BME280;70784;48.420;14.830;2023-08-01T06:20:13;97128.00;;;16.82;92.31
81319;BME280;70784;48.420;14.830;2023-08-01T06:23:00;97133.34;;;16.94;92.96
81319;BME280;70784;48.420;14.830;2023-08-01T06:25:46;97136.09;;;16.99;92.80
81319;BME280;70784;48.420;14.830;2023-08-01T06:28:33;97149.63;;;17.02;92.17
81319;BME280;70784;48.420;14.830;2023-08-01T06:31:20;97147.78;;;17.03;93.24
81319;BME280;70784;48.420;14.830;2023-08-01T06:34:06;97140.50;;;17.05;94.10
81319;BME280;70784;48.420;14.830;2023-08-01T06:36:51;97145.09;;;17.10;94.69
81319;BME280;70784;48.420;14.830;2023-08-01T06:39:37;97140.22;;;16.95;95.20
81319;BME280;70784;48.420;14.830;2023-08-01T06:42:22;97146.28;;;17.14;94.96
81319;BME280;70784;48.420;14.830;2023-08-01T06:45:08;97142.09;;;17.24;95.12
81319;BME280;70784;48.420;14.830;2023-08-01T06:47:53;97147.63;;;17.16;95.92
81319;BME280;70784;48.420;14.830;2023-08-01T06:50:38;97147.41;;;17.18;95.64
81319;BME280;70784;48.420;14.830;2023-08-01T06:53:26;97148.22;;;17.36;92.84
81319;BME280;70784;48.420;14.830;2023-08-01T06:56:12;97150.84;;;17.55;92.77
81319;BME280;70784;48.420;14.830;2023-08-01T06:58:57;97151.81;;;17.24;93.49
81319;BME280;70784;48.420;14.830;2023-08-01T07:01:43;97138.31;;;17.20;94.39
81319;BME280;70784;48.420;14.830;2023-08-01T07:04:31;97147.28;;;17.13;93.79
81319;BME280;70784;48.420;14.830;2023-08-01T07:07:16;97139.19;;;17.14;93.55
81319;BME280;70784;48.420;14.830;2023-08-01T07:10:00;97125.78;;;17.22;93.61
81319;BME280;70784;48.420;14.830;2023-08-01T07:12:44;97125.59;;;17.17;93.25
81319;BME280;70784;48.420;14.830;2023-08-01T07:15:29;97127.63;;;17.33;93.26
81319;BME280;70784;48.420;14.830;2023-08-01T07:18:14;97124.66;;;17.48;93.36
81319;BME280;70784;48.420;14.830;2023-08-01T07:20:59;97136.38;;;17.45;92.13
81319;BME280;70784;48.420;14.830;2023-08-01T07:23:44;97132.03;;;17.39;90.80
81319;BME280;70784;48.420;14.830;2023-08-01T07:26:29;97132.53;;;17.30;91.87
81319;BME280;70784;48.420;14.830;2023-08-01T07:29:13;97133.66;;;17.22;92.73
81319;BME280;70784;48.420;14.830;2023-08-01T07:31:59;97133.94;;;17.14;91.64
81319;BME280;70784;48.420;14.830;2023-08-01T07:34:44;97136.31;;;17.16;91.92
81319;BME280;70784;48.420;14.830;2023-08-01T07:37:28;97128.75;;;17.07;92.61
81319;BME280;70784;48.420;14.830;2023-08-01T07:40:13;97131.03;;;17.04;93.73
81319;BME280;70784;48.420;14.830;2023-08-01T07:42:57;97132.31;;;16.95;93.70
81319;BME280;70784;48.420;14.830;2023-08-01T07:45:44;97131.72;;;16.93;92.85
81319;BME280;70784;48.420;14.830;2023-08-01T07:48:28;97125.59;;;16.99;93.75
81319;BME280;70784;48.420;14.830;2023-08-01T07:51:12;97122.25;;;16.92;92.89
81319;BME280;70784;48.420;14.830;2023-08-01T07:53:57;97118.59;;;16.93;95.09
81319;BME280;70784;48.420;14.830;2023-08-01T07:56:41;97121.31;;;16.86;94.21
81319;BME280;70784;48.420;14.830;2023-08-01T07:59:27;97126.06;;;16.96;93.12
81319;BME280;70784;48.420;14.830;2023-08-01T08:02:12;97126.94;;;16.90;94.77
81319;BME280;70784;48.420;14.830;2023-08-01T08:04:56;97126.13;;;16.89;94.72
81319;BME280;70784;48.420;14.830;2023-08-01T08:07:41;97120.28;;;16.87;94.19
81319;BME280;70784;48.420;14.830;2023-08-01T08:10:25;97128.09;;;16.94;94.06
81319;BME280;70784;48.420;14.830;2023-08-01T08:13:09;97128.41;;;17.04;94.45
81319;BME280;70784;48.420;14.830;2023-08-01T08:15:57;97120.94;;;17.19;93.44
81319;BME280;70784;48.420;14.830;2023-08-01T08:18:42;97117.72;;;17.17;94.40
81319;BME280;70784;48.420;14.830;2023-08-01T08:21:26;97120.13;;;17.19;93.68
81319;BME280;70784;48.420;14.830;2023-08-01T08:24:11;97121.16;;;17.18;93.70
81319;BME280;70784;48.420;14.830;2023-08-01T08:26:55;97126.91;;;17.08;95.64
81319;BME280;70784;48.420;14.830;2023-08-01T08:29:40;97122.84;;;17.12;95.54
81319;BME280;70784;48.420;14.830;2023-08-01T08:32:24;97129.28;;;16.98;95.50
81319;BME280;70784;48.420;14.830;2023-08-01T08:35:09;97128.59;;;17.02;96.21
81319;BME280;70784;48.420;14.830;2023-08-01T08:37:58;97115.97;;;16.93;95.24
81319;BME280;70784;48.420;14.830;2023-08-01T08:41:10;97119.88;;;16.90;95.69
81319;BME280;70784;48.420;14.830;2023-08-01T08:43:59;97110.38;;;16.89;96.07
81319;BME280;70784;48.420;14.830;2023-08-01T08:46:50;97104.38;;;16.82;95.85
81319;BME280;70784;48.420;14.830;2023-08-01T08:49:35;97113.78;;;16.72;95.97
81319;BME280;70784;48.420;14.830;2023-08-01T08:52:21;97114.94;;;16.76;96.90
81319;BME280;70784;48.420;14.830;2023-08-01T08:55:06;97107.47;;;16.79;95.24
81319;BME280;70784;48.420;14.830;2023-08-01T08:57:51;97102.34;;;16.84;95.97
81319;BME280;70784;48.420;14.830;2023-08-01T09:00:36;97094.25;;;16.86;96.20
81319;BME280;70784;48.420;14.830;2023-08-01T09:03:21;97094.03;;;16.87;95.80
81319;BME280;70784;48.420;14.830;2023-08-01T09:06:15;97097.00;;;17.09;95.54
81319;BME280;70784;48.420;14.830;2023-08-01T09:09:09;97099.09;;;17.07;95.10
81319;BME280;70784;48.420;14.830;2023-08-01T09:11:54;97096.50;;;17.19;96.04
81319;BME280;70784;48.420;14.830;2023-08-01T09:14:42;97091.47;;;17.17;96.68
81319;BME280;70784;48.420;14.830;2023-08-01T09:17:27;97090.63;;;17.05;95.20
81319;BME280;70784;48.420;14.830;2023-08-01T09:20:11;97077.53;;;17.17;95.80
81319;BME280;70784;48.420;14.830;2023-08-01T09:22:56;97068.53;;;17.24;95.43
81319;BME280;70784;48.420;14.830;2023-08-01T09:25:41;97061.91;;;17.22;94.74
81319;BME280;70784;48.420;14.830;2023-08-01T09:28:25;97063.97;;;17.20;94.11
81319;BME280;70784;48.420;14.830;2023-08-01T09:31:11;97064.25;;;17.30;93.91
81319;BME280;70784;48.420;14.830;2023-08-01T09:33:56;97059.56;;;17.32;94.46
81319;BME280;70784;48.420;14.830;2023-08-01T09:36:40;97059.69;;;17.37;94.97
81319;BME280;70784;48.420;14.830;2023-08-01T09:39:25;97062.97;;;17.32;92.94
81319;BME280;70784;48.420;14.830;2023-08-01T09:42:09;97060.34;;;17.32;94.38
81319;BME280;70784;48.420;14.830;2023-08-01T09:44:55;97058.00;;;17.42;93.78
81319;BME280;70784;48.420;14.830;2023-08-01T09:47:40;97062.53;;;17.35;94.55
81319;BME280;70784;48.420;14.830;2023-08-01T09:50:25;97060.91;;;17.23;93.53
81319;BME280;70784;48.420;14.830;2023-08-01T09:53:09;97060.72;;;17.36;94.45
81319;BME280;70784;48.420;14.830;2023-08-01T09:55:55;97063.72;;;17.39;92.98
81319;BME280;70784;48.420;14.830;2023-08-01T09:58:40;97064.25;;;17.30;92.39
81319;BME280;70784;48.420;14.830;2023-08-01T10:01:25;97070.31;;;17.30;94.53
81319;BME280;70784;48.420;14.830;2023-08-01T10:04:11;97063.91;;;17.08;95.26
81319;BME280;70784;48.420;14.830;2023-08-01T10:07:06;97060.72;;;16.88;95.86
81319;BME280;70784;48.420;14.830;2023-08-01T10:09:51;97060.25;;;16.91;96.12
81319;BME280;70784;48.420;14.830;2023-08-01T10:12:36;97047.69;;;16.81;96.35
81319;BME280;70784;48.420;14.830;2023-08-01T10:15:21;97048.03;;;16.85;96.28
81319;BME280;70784;48.420;14.830;2023-08-01T10:18:06;97041.25;;;16.95;97.38
81319;BME280;70784;48.420;14.830;2023-08-01T10:20:51;97036.91;;;17.19;97.37
81319;BME280;70784;48.420;14.830;2023-08-01T10:23:37;97020.69;;;17.22;96.79
81319;BME280;70784;48.420;14.830;2023-08-01T10:26:22;97016.69;;;17.20;96.46
81319;BME280;70784;48.420;14.830;2023-08-01T10:29:07;97008.59;;;17.21;97.07
81319;BME280;70784;48.420;14.830;2023-08-01T10:31:52;97012.41;;;17.37;97.46
81319;BME280;70784;48.420;14.830;2023-08-01T10:34:37;97016.25;;;17.23;95.92
81319;BME280;70784;48.420;14.830;2023-08-01T10:37:22;97016.31;;;17.46;96.22
81319;BME280;70784;48.420;14.830;2023-08-01T10:40:07;97018.16;;;17.45;95.91
81319;BME280;70784;48.420;14.830;2023-08-01T10:42:52;97017.59;;;17.14;96.10
81319;BME280;70784;48.420;14.830;2023-08-01T10:45:36;97012.81;;;17.22;94.23
81319;BME280;70784;48.420;14.830;2023-08-01T10:48:21;97020.44;;;17.12;94.28
81319;BME280;70784;48.420;14.830;2023-08-01T10:51:05;97017.19;;;17.28;93.50
81319;BME280;70784;48.420;14.830;2023-08-01T10:53:50;97015.09;;;17.60;95.97
81319;BME280;70784;48.420;14.830;2023-08-01T10:56:35;97025.59;;;17.49;93.58
81319;BME280;70784;48.420;14.830;2023-08-01T10:59:20;97029.94;;;17.55;94.03
81319;BME280;70784;48.420;14.830;2023-08-01T11:02:05;97028.38;;;17.35;93.04
81319;BME280;70784;48.420;14.830;2023-08-01T11:04:59;97024.75;;;17.36;93.35
81319;BME280;70784;48.420;14.830;2023-08-01T11:07:59;97027.97;;;17.50;94.35
81319;BME280;70784;48.420;14.830;2023-08-01T11:10:49;97026.84;;;17.46;93.83
81319;BME280;70784;48.420;14.830;2023-08-01T11:13:33;97007.16;;;17.78;92.83
81319;BME280;70784;48.420;14.830;2023-08-01T11:16:19;97008.44;;;17.88;92.13
81319;BME280;70784;48.420;14.830;2023-08-01T11:19:03;97001.44;;;18.16;93.86
81319;BME280;70784;48.420;14.830;2023-08-01T11:21:48;97002.97;;;18.24;91.94
81319;BME280;70784;48.420;14.830;2023-08-01T11:24:33;96999.03;;;17.92;93.22
81319;BME280;70784;48.420;14.830;2023-08-01T11:27:17;96988.41;;;17.75;94.14
81319;BME280;70784;48.420;14.830;2023-08-01T11:30:02;96993.25;;;17.48;93.75
81319;BME280;70784;48.420;14.830;2023-08-01T11:32:49;96998.72;;;17.88;93.91
81319;BME280;70784;48.420;14.830;2023-08-01T11:35:33;96999.97;;;17.86;94.08
81319;BME280;70784;48.420;14.830;2023-08-01T11:38:17;96996.97;;;17.70;93.26
81319;BME280;70784;48.420;14.830;2023-08-01T11:41:03;96999.22;;;17.55;93.96
81319;BME280;70784;48.420;14.830;2023-08-01T11:43:48;96999.78;;;17.57;91.85
81319;BME280;70784;48.420;14.830;2023-08-01T11:46:33;96998.72;;;17.88;94.32
81319;BME280;70784;48.420;14.830;2023-08-01T11:49:19;97007.94;;;17.67;91.34
81319;BME280;70784;48.420;14.830;2023-08-01T11:52:04;97009.44;;;17.63;92.87
81319;BME280;70784;48.420;14.830;2023-08-01T11:54:48;97004.31;;;17.80;94.40
81319;BME280;70784;48.420;14.830;2023-08-01T11:57:33;97010.00;;;17.77;93.55
81319;BME280;70784;48.420;14.830;2023-08-01T12:00:25;97002.84;;;17.54;94.25
81319;BME280;70784;48.420;14.830;2023-08-01T12:03:10;96998.03;;;17.51;94.60
81319;BME280;70784;48.420;14.830;2023-08-01T12:06:04;96992.19;;;17.37;93.84
81319;BME280;70784;48.420;14.830;2023-08-01T12:08:52;96985.81;;;17.45;95.93
81319;BME280;70784;48.420;14.830;2023-08-01T12:11:38;96983.03;;;17.28;94.90
81319;BME280;70784;48.420;14.830;2023-08-01T12:14:23;96977.88;;;17.33;94.45
81319;BME280;70784;48.420;14.830;2023-08-01T12:17:07;96978.72;;;17.45;96.26
81319;BME280;70784;48.420;14.830;2023-08-01T12:19:52;96973.66;;;17.32;95.28
81319;BME280;70784;48.420;14.830;2023-08-01T12:22:37;96968.97;;;17.34;94.59
81319;BME280;70784;48.420;14.830;2023-08-01T12:25:21;96960.66;;;17.37;94.10
81319;BME280;70784;48.420;14.830;2023-08-01T12:28:05;96951.22;;;17.48;94.18
81319;BME280;70784;48.420;14.830;2023-08-01T12:30:50;96956.84;;;17.63;94.90
81319;BME280;70784;48.420;14.830;2023-08-01T12:33:36;96952.72;;;17.56;93.79
81319;BME280;70784;48.420;14.830;2023-08-01T12:36:20;96948.75;;;17.65;95.23
81319;BME280;70784;48.420;14.830;2023-08-01T12:39:05;96948.66;;;17.41;94.44
81319;BME280;70784;48.420;14.830;2023-08-01T12:41:55;96942.75;;;17.58;95.75
81319;BME280;70784;48.420;14.830;2023-08-01T12:44:39;96944.59;;;17.57;95.39
81319;BME280;70784;48.420;14.830;2023-08-01T12:47:23;96937.50;;;17.46;95.18
81319;BME280;70784;48.420;14.830;2023-08-01T12:50:08;96940.13;;;17.46;95.45
81319;BME280;70784;48.420;14.830;2023-08-01T12:52:53;96938.16;;;17.41;95.83
81319;BME280;70784;48.420;14.830;2023-08-01T12:55:37;96956.09;;;17.44;96.26
81319;BME280;70784;48.420;14.830;2023-08-01T12:58:21;96959.06;;;17.36;96.32
81319;BME280;70784;48.420;14.830;2023-08-01T13:01:06;96956.47;;;17.48;96.09
81319;BME280;70784;48.420;14.830;2023-08-01T13:03:51;96955.66;;;17.59;95.97
81319;BME280;70784;48.420;14.830;2023-08-01T13:06:36;96971.50;;;17.71;95.94
81319;BME280;70784;48.420;14.830;2023-08-01T13:09:21;96979.78;;;17.56;96.00
81319;BME280;70784;48.420;14.830;2023-08-01T13:12:06;96984.16;;;17.62;96.21
81319;BME280;70784;48.420;14.830;2023-08-01T13:14:51;96995.66;;;17.61;97.95
81319;BME280;70784;48.420;14.830;2023-08-01T13:17:35;96987.63;;;17.44;98.21
81319;BME280;70784;48.420;14.830;2023-08-01T13:20:20;96993.91;;;17.32;98.17
81319;BME280;70784;48.420;14.830;2023-08-01T13:23:06;96985.22;;;17.31;98.04
81319;BME280;70784;48.420;14.830;2023-08-01T13:25:51;96992.66;;;17.46;96.81
81319;BME280;70784;48.420;14.830;2023-08-01T13:28:35;96991.66;;;17.47;97.29
81319;BME280;70784;48.420;14.830;2023-08-01T13:31:19;96985.13;;;17.50;96.47
81319;BME280;70784;48.420;14.830;2023-08-01T13:34:04;96980.66;;;17.50;97.13
81319;BME280;70784;48.420;14.830;2023-08-01T13:36:48;96984.78;;;17.46;96.28
81319;BME280;70784;48.420;14.830;2023-08-01T13:39:33;96992.31;;;17.42;98.07
81319;BME280;70784;48.420;14.830;2023-08-01T13:42:17;96982.81;;;17.41;97.76
81319;BME280;70784;48.420;14.830;2023-08-01T13:45:01;96983.53;;;17.49;97.02
81319;BME280;70784;48.420;14.830;2023-08-01T13:47:46;96982.91;;;17.65;95.38
81319;BME280;70784;48.420;14.830;2023-08-01T13:50:30;96986.03;;;17.73;94.18
81319;BME280;70784;48.420;14.830;2023-08-01T13:53:15;96989.13;;;17.82;93.17
81319;BME280;70784;48.420;14.830;2023-08-01T13:56:00;96980.75;;;17.85;93.92
81319;BME280;70784;48.420;14.830;2023-08-01T13:58:44;96964.06;;;17.91;94.11
81319;BME280;70784;48.420;14.830;2023-08-01T14:01:29;96963.16;;;17.86;94.43
81319;BME280;70784;48.420;14.830;2023-08-01T14:04:13;96957.56;;;18.05;93.30
81319;BME280;70784;48.420;14.830;2023-08-01T14:06:58;96958.13;;;18.31;92.57
81319;BME280;70784;48.420;14.830;2023-08-01T14:09:42;96949.16;;;18.43;92.62
81319;BME280;70784;48.420;14.830;2023-08-01T14:12:26;96952.56;;;18.55;92.91
81319;BME280;70784;48.420;14.830;2023-08-01T14:15:11;96949.00;;;18.50;91.77
81319;BME280;70784;48.420;14.830;2023-08-01T14:17:56;96946.06;;;18.46;92.68
81319;BME280;70784;48.420;14.830;2023-08-01T14:20:40;96938.03;;;18.53;91.85
81319;BME280;70784;48.420;14.830;2023-08-01T14:23:24;96930.59;;;18.62;89.77
81319;BME280;70784;48.420;14.830;2023-08-01T14:26:09;96928.78;;;18.62;88.80
81319;BME280;70784;48.420;14.830;2023-08-01T14:28:53;96931.41;;;18.90;89.03